Time;durP1;ratioP1;P1;durP2;ratioP2;P2;SDS_P1;SDS_P2;PMS_P1;PMS_P2;Temp;Humidity;BMP_temperature;BMP_pressure;BME280_temperature;BME280_humidity;BME280_pressure;Samples;Min_cycle;Max_cycle;Signal;HPM_P1;HPM_P2
2021/08/07 00:00:06;;;;;;;22.50;18.67;;;;;;;19.26;75.81;99153.28;5048968;28;20032;-48
2021/08/07 00:02:32;;;;;;;21.98;19.52;;;;;;;19.30;75.61;99167.31;5052264;28;20028;-48
2021/08/07 00:04:58;;;;;;;22.63;19.00;;;;;;;19.30;75.75;99165.44;5052413;28;20124;-50
2021/08/07 00:07:27;;;;;;;21.65;19.35;;;;;;;19.28;75.78;99150.38;5051777;28;20033;-52
2021/08/07 00:09:54;;;;;;;23.83;19.55;;;;;;;19.18;75.82;99129.00;5051928;28;20152;-54
2021/08/07 00:12:19;;;;;;;22.63;20.23;;;;;;;19.27;75.87;99148.72;5050324;28;20029;-54
2021/08/07 00:14:45;;;;;;;21.35;19.05;;;;;;;19.25;75.92;99154.31;5051924;28;20106;-50
2021/08/07 00:17:11;;;;;;;25.00;20.67;;;;;;;19.16;76.10;99152.78;5052028;28;20033;-50
2021/08/07 00:19:37;;;;;;;21.92;18.55;;;;;;;18.99;76.44;99141.41;5051564;28;20029;-52
2021/08/07 00:22:05;;;;;;;22.60;20.08;;;;;;;19.23;76.00;99156.38;5040518;28;20029;-54
2021/08/07 00:24:31;;;;;;;24.38;19.65;;;;;;;19.17;76.34;99154.47;5030634;28;20116;-52
2021/08/07 00:26:56;;;;;;;20.95;18.73;;;;;;;19.15;76.68;99151.13;5031425;28;20113;-47
2021/08/07 00:29:22;;;;;;;22.17;19.38;;;;;;;19.21;76.23;99153.91;5031561;28;20033;-53
2021/08/07 00:31:47;;;;;;;23.02;19.48;;;;;;;19.27;75.83;99154.94;5032829;28;20034;-51
2021/08/07 00:34:13;;;;;;;21.73;19.10;;;;;;;19.28;75.97;99167.50;5031329;28;20032;-55
2021/08/07 00:36:38;;;;;;;24.10;21.08;;;;;;;19.28;75.84;99156.63;5031460;28;20378;-53
2021/08/07 00:39:04;;;;;;;23.15;19.58;;;;;;;19.24;76.04;99154.53;5031494;28;20029;-53
2021/08/07 00:41:29;;;;;;;25.10;19.88;;;;;;;19.32;75.77;99147.09;5040000;28;20037;-50
2021/08/07 00:43:55;;;;;;;21.80;19.58;;;;;;;19.30;75.98;99149.16;5032291;28;20025;-54
2021/08/07 00:46:21;;;;;;;23.08;20.25;;;;;;;19.26;75.74;99147.84;5031298;28;20052;-53
2021/08/07 00:48:46;;;;;;;23.70;20.30;;;;;;;19.36;75.93;99152.94;5031647;28;20025;-53
2021/08/07 00:51:14;;;;;;;21.48;19.23;;;;;;;19.40;75.48;99145.25;5031512;28;20040;-50
2021/08/07 00:53:40;;;;;;;22.58;19.70;;;;;;;19.35;76.01;99143.97;5030159;28;20041;-49
2021/08/07 00:56:05;;;;;;;24.70;19.02;;;;;;;19.40;75.81;99137.94;5031258;28;20076;-56
2021/08/07 00:58:31;;;;;;;23.50;20.10;;;;;;;19.46;75.45;99142.59;5030898;28;20044;-56
2021/08/07 01:00:56;;;;;;;24.38;21.02;;;;;;;19.41;75.63;99139.63;5030769;28;20087;-58
2021/08/07 01:03:45;;;;;;;25.40;20.15;;;;;;;19.53;75.29;99148.03;5035628;28;20033;-49
2021/08/07 01:06:30;;;;;;;26.40;21.05;;;;;;;19.59;74.89;99146.41;5050873;28;20036;-50
2021/08/07 01:09:05;;;;;;;28.85;21.42;;;;;;;19.47;75.53;99141.53;5050680;28;20033;-54
2021/08/07 01:11:53;;;;;;;24.50;21.83;;;;;;;19.52;75.59;99138.22;5050084;28;20029;-49
2021/08/07 01:14:24;;;;;;;24.70;19.52;;;;;;;19.45;75.72;99131.91;5042249;28;20108;-58
2021/08/07 01:16:53;;;;;;;23.13;20.65;;;;;;;19.48;75.34;99135.06;5030215;28;20450;-55
2021/08/07 01:19:18;;;;;;;26.65;21.77;;;;;;;19.51;75.08;99126.53;5031343;28;20026;-58
2021/08/07 01:21:50;;;;;;;27.60;22.83;;;;;;;19.62;74.93;99129.72;5031780;28;20124;-49
2021/08/07 01:24:22;;;;;;;25.95;22.40;;;;;;;19.54;75.11;99130.72;5032145;28;20022;-51
2021/08/07 01:27:02;;;;;;;25.38;22.35;;;;;;;19.50;74.71;99132.16;5030919;28;20047;-55
2021/08/07 01:29:29;;;;;;;25.55;22.38;;;;;;;19.48;75.07;99128.78;5030758;28;20386;-52
2021/08/07 01:31:55;;;;;;;26.13;21.52;;;;;;;19.45;74.93;99115.63;5030629;28;20087;-51
2021/08/07 01:34:21;;;;;;;28.27;21.67;;;;;;;19.47;75.16;99111.69;5031217;28;20025;-55
2021/08/07 01:36:48;;;;;;;26.90;23.08;;;;;;;19.52;74.98;99124.63;5030375;28;20120;-54
2021/08/07 01:39:14;;;;;;;24.10;21.58;;;;;;;19.53;74.76;99125.50;5031131;28;20112;-52
2021/08/07 01:41:40;;;;;;;23.92;20.70;;;;;;;19.60;74.32;99118.22;5030530;28;20060;-52
2021/08/07 01:44:06;;;;;;;23.48;20.98;;;;;;;19.59;74.11;99119.25;5030327;28;20113;-51
2021/08/07 01:46:39;;;;;;;24.38;21.83;;;;;;;19.60;74.17;99113.63;5031157;28;20121;-52
2021/08/07 01:49:16;;;;;;;24.98;22.35;;;;;;;19.58;74.80;99113.00;5030325;28;20045;-52
2021/08/07 01:51:46;;;;;;;25.25;22.17;;;;;;;19.42;74.86;99097.03;5030568;28;20134;-55
2021/08/07 01:54:14;;;;;;;23.92;20.90;;;;;;;19.51;74.98;99120.25;5030285;28;20458;-52
2021/08/07 01:56:44;;;;;;;26.38;22.30;;;;;;;19.57;74.74;99108.59;5031200;28;20034;-51
2021/08/07 01:59:16;;;;;;;25.10;21.33;;;;;;;19.44;74.52;99084.09;5030102;28;20112;-51
2021/08/07 02:01:45;;;;;;;23.98;21.33;;;;;;;19.60;74.34;99120.94;5030427;28;20112;-50
2021/08/07 02:04:13;;;;;;;23.48;20.98;;;;;;;19.57;74.76;99115.91;5030675;28;20029;-54
2021/08/07 02:06:39;;;;;;;22.67;20.35;;;;;;;19.60;74.72;99131.78;5035120;28;20025;-56
2021/08/07 02:09:05;;;;;;;23.33;20.92;;;;;;;19.64;74.20;99128.47;5034044;28;20029;-55
2021/08/07 02:11:32;;;;;;;24.25;21.70;;;;;;;19.70;73.90;99136.84;5033968;28;20527;-53
2021/08/07 02:13:59;;;;;;;24.33;21.50;;;;;;;19.61;74.33;99131.59;5033497;28;20030;-56
2021/08/07 02:16:26;;;;;;;25.48;21.60;;;;;;;19.61;74.48;99128.88;5034717;28;20448;-52
2021/08/07 02:18:53;;;;;;;23.67;21.23;;;;;;;19.57;74.05;99127.63;5053652;28;20393;-55
2021/08/07 02:21:19;;;;;;;24.27;21.75;;;;;;;19.63;74.02;99140.38;5054291;28;20029;-57
2021/08/07 02:23:48;;;;;;;28.35;21.83;;;;;;;19.76;73.77;99136.03;5054093;28;20427;-56
2021/08/07 02:26:16;;;;;;;24.45;21.85;;;;;;;19.72;74.08;99140.22;5054423;28;20108;-52
2021/08/07 02:28:42;;;;;;;24.98;22.33;;;;;;;19.72;73.71;99151.94;5051581;28;20106;-55
2021/08/07 02:31:09;;;;;;;30.35;22.65;;;;;;;19.77;73.61;99173.88;5053738;28;20469;-55
2021/08/07 02:33:36;;;;;;;28.13;22.33;;;;;;;19.83;73.47;99169.53;5053365;28;20029;-54
2021/08/07 02:36:03;;;;;;;31.00;23.25;;;;;;;19.93;72.89;99152.91;5053446;28;20065;-54
2021/08/07 02:38:31;;;;;;;24.23;21.40;;;;;;;19.93;72.59;99128.44;5042688;28;20461;-57
2021/08/07 02:40:59;;;;;;;27.00;22.48;;;;;;;19.97;73.60;99142.44;5033422;28;20125;-57
2021/08/07 02:43:25;;;;;;;28.63;22.25;;;;;;;19.78;74.69;99139.44;5033270;28;20030;-53
2021/08/07 02:45:52;;;;;;;27.02;21.83;;;;;;;19.77;74.28;99137.72;5033777;28;20461;-49
2021/08/07 02:48:19;;;;;;;24.45;21.85;;;;;;;19.68;74.98;99120.78;5034949;28;20048;-55
2021/08/07 02:50:45;;;;;;;24.33;21.33;;;;;;;19.58;75.26;99123.00;5033622;28;20037;-52
2021/08/07 02:53:11;;;;;;;23.73;21.08;;;;;;;19.57;75.05;99127.63;5033510;28;20436;-51
2021/08/07 02:55:38;;;;;;;24.33;21.30;;;;;;;19.50;75.70;99130.28;5033084;28;20029;-52
2021/08/07 02:58:04;;;;;;;26.08;21.80;;;;;;;19.46;75.26;99139.00;5033121;28;20480;-56
2021/08/07 03:00:30;;;;;;;26.30;22.33;;;;;;;19.48;75.94;99132.38;5031937;28;20116;-53
2021/08/07 03:02:56;;;;;;;24.58;21.98;;;;;;;19.45;76.27;99119.19;5033126;28;20037;-54
2021/08/07 03:05:22;;;;;;;26.73;22.60;;;;;;;19.50;75.53;99115.84;5032882;28;20048;-55
2021/08/07 03:07:47;;;;;;;26.00;21.05;;;;;;;19.44;75.94;99111.22;5033800;28;20033;-55
2021/08/07 03:10:13;;;;;;;23.80;21.30;;;;;;;19.42;76.37;99099.75;5044833;28;20082;-55
2021/08/07 03:12:39;;;;;;;26.13;21.50;;;;;;;19.47;75.69;99083.69;5052322;28;20199;-55
2021/08/07 03:15:05;;;;;;;23.60;21.08;;;;;;;19.42;76.04;99078.03;5052017;28;20048;-55
2021/08/07 03:17:31;;;;;;;27.35;21.10;;;;;;;19.48;75.63;99074.50;5053023;28;20041;-52
2021/08/07 03:19:57;;;;;;;24.38;21.88;;;;;;;19.39;76.37;99076.53;5050619;28;20033;-55
2021/08/07 03:22:23;;;;;;;25.33;21.27;;;;;;;19.31;77.23;99112.84;5052188;28;20068;-55
2021/08/07 03:24:48;;;;;;;23.63;20.92;;;;;;;19.35;77.16;99152.13;5053228;28;20414;-56
2021/08/07 03:27:14;;;;;;;26.58;21.45;;;;;;;19.26;77.14;99123.44;5053067;28;20418;-54
2021/08/07 03:29:40;;;;;;;23.50;21.05;;;;;;;19.50;76.95;99160.16;5051125;28;20045;-56
2021/08/07 03:32:05;;;;;;;26.88;21.80;;;;;;;19.45;75.94;99108.34;5052280;28;20170;-56
2021/08/07 03:34:31;;;;;;;24.98;21.48;;;;;;;19.65;75.50;99122.00;5052945;28;20029;-56
2021/08/07 03:36:56;;;;;;;25.30;21.92;;;;;;;19.57;75.99;99135.75;5052593;28;20040;-57
2021/08/07 03:39:22;;;;;;;25.35;22.27;;;;;;;19.48;76.75;99140.50;5050463;28;20480;-56
2021/08/07 03:41:52;;;;;;;27.70;22.13;;;;;;;19.58;75.98;99136.59;5039196;28;20026;-54
2021/08/07 03:44:18;;;;;;;25.98;21.02;;;;;;;19.52;76.21;99138.22;5033065;28;20100;-52
2021/08/07 03:46:43;;;;;;;24.42;21.80;;;;;;;19.47;76.30;99137.97;5032494;28;20112;-50
2021/08/07 03:49:09;;;;;;;24.05;21.55;;;;;;;19.45;76.59;99126.47;5032165;28;20033;-49
2021/08/07 03:51:34;;;;;;;26.10;20.75;;;;;;;19.45;76.39;99124.63;5033138;28;20044;-49
2021/08/07 03:53:59;;;;;;;23.40;20.98;;;;;;;19.60;75.74;99131.78;5032446;28;20110;-47
2021/08/07 03:56:25;;;;;;;23.42;20.70;;;;;;;19.58;75.42;99123.00;5032263;28;20042;-50
2021/08/07 03:58:50;;;;;;;26.77;21.27;;;;;;;19.57;76.09;99134.91;5031918;28;20025;-49
2021/08/07 04:01:17;;;;;;;23.98;21.23;;;;;;;19.62;75.93;99141.41;5033149;28;20033;-52
2021/08/07 04:03:42;;;;;;;24.63;20.50;;;;;;;19.76;75.98;99131.47;5032072;28;20041;-49
2021/08/07 04:06:08;;;;;;;24.73;20.98;;;;;;;19.96;74.49;99113.59;5032037;28;20068;-49
2021/08/07 04:08:33;;;;;;;25.13;21.20;;;;;;;20.20;74.14;99118.50;5031834;28;20034;-49
2021/08/07 04:10:59;;;;;;;22.13;19.73;;;;;;;20.50;72.28;99112.75;5044844;28;20112;-47
2021/08/07 04:13:24;;;;;;;22.85;20.38;;;;;;;20.81;71.82;99123.25;5051413;28;20377;-50
2021/08/07 04:15:50;;;;;;;32.58;20.13;;;;;;;21.06;70.62;99121.59;5051781;28;20131;-50
2021/08/07 04:18:15;;;;;;;23.50;19.65;;;;;;;21.35;69.48;99119.47;5050372;28;20029;-53
2021/08/07 04:20:41;;;;;;;21.63;18.20;;;;;;;21.58;68.59;99114.56;5049646;28;20032;-50
2021/08/07 04:23:06;;;;;;;21.70;18.30;;;;;;;21.80;67.88;99107.84;5051482;28;20044;-49
2021/08/07 04:25:32;;;;;;;21.15;17.58;;;;;;;22.21;66.92;99113.97;5051686;28;20036;-49
2021/08/07 04:27:58;;;;;;;22.63;19.10;;;;;;;22.82;64.27;99108.16;5051453;28;20064;-50
2021/08/07 04:30:23;;;;;;;21.63;17.63;;;;;;;23.62;61.94;99117.47;5049315;28;20067;-51
2021/08/07 04:32:50;;;;;;;19.08;17.08;;;;;;;24.36;59.34;99108.41;5051748;28;20032;-56
2021/08/07 04:35:15;;;;;;;21.30;17.05;;;;;;;25.14;56.64;99107.63;5051659;28;20112;-50
2021/08/07 04:37:54;;;;;;;21.00;16.60;;;;;;;26.14;55.06;99106.78;5051472;28;20437;-50
2021/08/07 04:40:21;;;;;;;19.40;17.30;;;;;;;25.96;52.97;99113.28;5035187;28;20034;-52
2021/08/07 04:42:47;;;;;;;17.77;15.93;;;;;;;25.90;53.46;99115.09;5032438;28;20404;-50
2021/08/07 04:45:13;;;;;;;18.00;16.08;;;;;;;25.79;53.43;99121.41;5031356;28;20041;-50
2021/08/07 04:47:56;;;;;;;16.45;14.65;;;;;;;26.44;53.84;99119.44;5031463;28;20473;-48
2021/08/07 04:50:24;;;;;;;19.75;17.17;;;;;;;26.87;51.20;99124.59;5031333;28;20034;-53
2021/08/07 04:52:51;;;;;;;17.95;16.10;;;;;;;26.92;49.94;99122.78;5042177;28;20035;-56
2021/08/07 04:55:16;;;;;;;19.80;16.17;;;;;;;26.86;49.76;99103.72;5051820;28;20033;-52
2021/08/07 04:57:42;;;;;;;19.55;16.30;;;;;;;27.17;49.58;99118.78;5050802;28;20037;-51
2021/08/07 05:00:08;;;;;;;21.30;15.60;;;;;;;27.48;48.69;99130.22;5036511;28;20087;-55
2021/08/07 05:02:33;;;;;;;17.77;15.88;;;;;;;27.40;48.55;99105.09;5036356;28;20028;-53
2021/08/07 05:04:59;;;;;;;16.27;14.63;;;;;;;28.01;47.31;99118.03;5049910;28;20491;-51
2021/08/07 05:07:24;;;;;;;18.75;14.95;;;;;;;28.49;46.00;99132.91;5050328;28;20362;-55
2021/08/07 05:09:50;;;;;;;16.25;14.68;;;;;;;28.48;46.03;99131.22;5050807;28;20021;-58
2021/08/07 05:12:15;;;;;;;16.75;14.82;;;;;;;28.06;46.28;99140.09;5050334;28;20029;-52
2021/08/07 05:14:41;;;;;;;18.27;14.90;;;;;;;27.94;47.11;99126.47;5031624;28;20057;-54
2021/08/07 05:17:06;;;;;;;17.45;15.65;;;;;;;28.29;45.54;99127.16;5030546;28;20381;-54
2021/08/07 05:19:32;;;;;;;19.95;14.18;;;;;;;29.19;43.96;99125.81;5030478;28;20033;-54
2021/08/07 05:21:57;;;;;;;16.70;14.75;;;;;;;30.32;41.14;99133.00;5030850;28;20116;-50
2021/08/07 05:24:23;;;;;;;17.52;14.90;;;;;;;30.97;39.66;99126.22;5031553;28;20029;-51
2021/08/07 05:26:48;;;;;;;15.65;14.02;;;;;;;31.76;37.70;99110.09;5030636;28;20132;-47
2021/08/07 05:29:14;;;;;;;13.90;12.30;;;;;;;32.61;35.86;99128.78;5030702;28;20029;-53
2021/08/07 05:31:39;;;;;;;15.75;13.75;;;;;;;32.33;36.09;99118.13;5030662;28;20517;-52
2021/08/07 05:34:04;;;;;;;15.65;13.77;;;;;;;32.19;35.99;99112.38;5031834;28;20426;-53
2021/08/07 05:36:30;;;;;;;15.68;12.88;;;;;;;32.65;35.04;99107.69;5030594;28;20440;-52
2021/08/07 05:38:55;;;;;;;14.32;12.32;;;;;;;33.52;33.82;99094.19;5030183;28;20121;-52
2021/08/07 05:41:21;;;;;;;14.18;12.68;;;;;;;34.56;32.02;99095.59;5030761;28;20041;-51
2021/08/07 05:43:46;;;;;;;12.70;11.40;;;;;;;35.47;30.89;99090.69;5030616;28;20032;-50
2021/08/07 05:46:12;;;;;;;12.80;11.43;;;;;;;36.37;28.88;99092.16;5031457;28;20453;-52
2021/08/07 05:48:37;;;;;;;13.05;11.43;;;;;;;37.47;26.91;99091.09;5030298;28;20167;-52
2021/08/07 05:51:03;;;;;;;13.95;10.93;;;;;;;38.36;25.84;99076.19;5030467;28;20141;-51
2021/08/07 05:53:28;;;;;;;12.50;10.30;;;;;;;39.38;24.61;99069.47;5030512;28;20112;-52
2021/08/07 05:55:54;;;;;;;11.70;10.18;;;;;;;39.71;23.41;99072.41;5031277;28;20477;-50
2021/08/07 05:58:21;;;;;;;17.05;10.93;;;;;;;38.83;24.42;99094.28;5030129;28;20033;-58
2021/08/07 06:00:46;;;;;;;14.45;11.50;;;;;;;38.57;24.17;99078.34;5037292;28;20025;-50
2021/08/07 06:03:12;;;;;;;12.38;10.93;;;;;;;38.71;24.13;99070.59;5030401;28;20032;-51
2021/08/07 06:05:38;;;;;;;14.90;11.27;;;;;;;38.00;24.82;99072.56;5030029;28;20116;-54
2021/08/07 06:08:04;;;;;;;13.45;11.00;;;;;;;37.50;25.36;99076.50;5037597;28;20105;-48
2021/08/07 06:10:29;;;;;;;14.32;10.43;;;;;;;37.61;25.45;99072.25;5050435;28;20056;-51
2021/08/07 06:12:55;;;;;;;13.25;10.35;;;;;;;38.68;24.27;99076.84;5044592;28;20173;-51
2021/08/07 06:15:21;;;;;;;11.98;10.00;;;;;;;38.19;24.70;99066.66;5030655;28;20139;-55
2021/08/07 06:17:46;;;;;;;12.68;10.82;;;;;;;36.71;27.03;99065.72;5029963;28;20061;-52
2021/08/07 06:20:12;;;;;;;12.57;11.18;;;;;;;35.57;28.36;99064.63;5029663;28;20034;-51
2021/08/07 06:22:39;;;;;;;13.73;10.40;;;;;;;34.52;29.97;99047.31;5030538;28;20068;-51
2021/08/07 06:25:05;;;;;;;12.85;10.65;;;;;;;33.62;32.23;99077.38;5030116;28;20087;-49
2021/08/07 06:27:32;;;;;;;17.73;11.30;;;;;;;32.24;34.53;99085.75;5029871;28;20211;-50
2021/08/07 06:29:58;;;;;;;18.55;10.88;;;;;;;30.63;37.51;99050.25;5029958;28;20385;-50
2021/08/07 06:32:23;;;;;;;13.77;11.13;;;;;;;29.72;39.37;99076.22;5029791;28;20029;-56
2021/08/07 06:34:49;;;;;;;15.20;11.95;;;;;;;28.91;41.30;99069.91;5030072;28;20042;-49
2021/08/07 06:37:14;;;;;;;17.73;12.38;;;;;;;28.06;43.38;99074.06;5030027;28;20025;-52
2021/08/07 06:39:41;;;;;;;13.27;11.88;;;;;;;27.30;46.02;99073.63;5029496;28;20040;-52
2021/08/07 06:42:06;;;;;;;14.95;11.88;;;;;;;26.95;46.47;99077.50;5029840;28;20029;-50
2021/08/07 06:44:32;;;;;;;16.35;11.82;;;;;;;26.54;47.41;99072.13;5029593;28;20029;-49
2021/08/07 06:46:57;;;;;;;20.60;11.98;;;;;;;26.17;48.39;99083.56;5029635;28;20036;-54
2021/08/07 06:49:22;;;;;;;21.10;12.77;;;;;;;25.85;49.58;99086.72;5030066;28;20366;-53
2021/08/07 06:51:48;;;;;;;20.48;12.27;;;;;;;25.87;49.46;99101.00;5032918;28;20142;-51
2021/08/07 06:54:13;;;;;;;16.75;12.75;;;;;;;26.44;48.44;99099.41;5033009;28;20088;-50
2021/08/07 06:56:39;;;;;;;22.67;12.10;;;;;;;27.04;46.91;99095.22;5033165;28;20030;-52
2021/08/07 06:59:04;;;;;;;16.13;11.63;;;;;;;27.45;45.77;99100.50;5033311;28;20534;-58
2021/08/07 07:01:30;;;;;;;17.85;12.07;;;;;;;27.59;45.81;99086.41;5032175;28;20355;-57
2021/08/07 07:03:55;;;;;;;16.52;11.52;;;;;;;27.56;46.15;99082.25;5032291;28;20033;-58
2021/08/07 07:06:20;;;;;;;19.35;12.32;;;;;;;27.49;45.12;99098.91;5032544;28;20030;-56
2021/08/07 07:08:46;;;;;;;20.88;12.88;;;;;;;27.30;45.85;99106.59;5032366;28;20099;-53
2021/08/07 07:11:11;;;;;;;18.05;12.38;;;;;;;26.91;46.52;99106.53;5031681;28;20034;-56
2021/08/07 07:13:37;;;;;;;17.58;11.85;;;;;;;26.42;48.08;99124.34;5031991;28;20104;-56
2021/08/07 07:16:03;;;;;;;17.80;11.60;;;;;;;26.23;48.05;99132.75;5031661;28;20088;-57
2021/08/07 07:18:29;;;;;;;20.08;11.85;;;;;;;26.44;48.00;99130.41;5031933;28;20378;-63
2021/08/07 07:20:54;;;;;;;18.42;12.07;;;;;;;26.63;47.58;99116.47;5031587;28;20124;-58
2021/08/07 07:23:20;;;;;;;12.55;10.55;;;;;;;27.00;46.81;99132.50;5031603;28;20480;-57
2021/08/07 07:25:45;;;;;;;15.13;11.43;;;;;;;27.20;46.27;99133.91;5032422;28;20025;-57
2021/08/07 07:28:11;;;;;;;15.93;10.98;;;;;;;27.52;45.84;99136.09;5031992;28;20100;-56
2021/08/07 07:30:36;;;;;;;15.90;11.63;;;;;;;28.01;44.78;99116.09;5031494;28;20032;-55
2021/08/07 07:33:02;;;;;;;15.68;11.73;;;;;;;28.72;43.13;99130.91;5031538;28;20037;-56
2021/08/07 07:35:27;;;;;;;18.30;11.05;;;;;;;29.08;42.08;99131.22;5031893;28;20033;-58
2021/08/07 07:37:53;;;;;;;17.38;11.05;;;;;;;28.99;42.73;99124.56;5031736;28;20059;-56
2021/08/07 07:40:19;;;;;;;17.30;10.65;;;;;;;28.93;42.65;99142.97;5031593;28;20038;-53
2021/08/07 07:42:44;;;;;;;17.88;11.05;;;;;;;28.77;42.60;99143.88;5050544;28;20029;-52
2021/08/07 07:45:11;;;;;;;17.92;11.43;;;;;;;28.76;42.74;99164.25;5051022;28;20048;-56
2021/08/07 07:47:36;;;;;;;17.17;10.05;;;;;;;29.02;42.09;99157.09;5050528;28;20119;-57
2021/08/07 07:50:02;;;;;;;17.25;10.50;;;;;;;29.23;41.98;99157.25;5051221;28;20029;-54
2021/08/07 07:52:28;;;;;;;19.67;11.10;;;;;;;29.17;41.88;99161.03;5050882;28;20029;-55
2021/08/07 07:54:53;;;;;;;13.27;9.95;;;;;;;28.98;42.46;99161.47;5051488;28;20021;-55
2021/08/07 07:57:21;;;;;;;15.43;9.70;;;;;;;28.73;43.22;99151.00;5052109;28;20093;-58
2021/08/07 07:59:47;;;;;;;16.20;9.18;;;;;;;28.59;43.14;99175.38;5051576;28;20453;-57
2021/08/07 08:02:13;;;;;;;19.42;9.48;;;;;;;28.18;44.82;99170.25;5051581;28;20112;-54
2021/08/07 08:04:38;;;;;;;14.05;9.35;;;;;;;27.87;45.29;99175.34;5048689;28;20080;-58
2021/08/07 08:07:04;;;;;;;16.35;9.15;;;;;;;27.73;46.05;99191.34;5040981;28;20041;-58
2021/08/07 08:09:29;;;;;;;9.82;8.30;;;;;;;27.46;46.70;99189.28;5041493;28;20397;-56
2021/08/07 08:11:55;;;;;;;11.57;8.30;;;;;;;27.23;47.41;99199.34;5042537;28;20457;-61
2021/08/07 08:14:30;;;;;;;17.27;8.65;;;;;;;27.19;47.95;99192.69;5041919;28;20029;-57
2021/08/07 08:16:56;;;;;;;19.48;8.85;;;;;;;26.95;48.56;99176.38;5042165;28;20041;-58
2021/08/07 08:19:21;;;;;;;15.02;8.77;;;;;;;26.86;48.32;99172.38;5044022;28;21388;-53
2021/08/07 08:21:47;;;;;;;21.00;8.85;;;;;;;26.76;48.45;99171.06;5039588;28;20397;-58
2021/08/07 08:24:13;;;;;;;11.73;8.23;;;;;;;26.88;48.28;99171.03;5041703;28;20029;-56
2021/08/07 08:26:40;;;;;;;12.30;8.18;;;;;;;26.97;47.89;99174.22;5039943;28;20036;-57
2021/08/07 08:29:05;;;;;;;15.07;7.40;;;;;;;27.27;47.14;99147.50;5045750;28;20112;-54
2021/08/07 08:31:31;;;;;;;15.32;7.45;;;;;;;27.91;45.55;99144.28;5045702;28;20457;-54
2021/08/07 08:33:56;;;;;;;14.65;7.50;;;;;;;28.65;44.10;99133.88;5046432;28;20025;-53
2021/08/07 08:36:22;;;;;;;27.50;8.27;;;;;;;29.35;41.82;99122.03;5048322;28;20040;-54
2021/08/07 08:38:47;;;;;;;16.55;6.75;;;;;;;29.85;40.33;99102.47;5051385;28;20469;-54
2021/08/07 08:41:13;;;;;;;16.42;6.88;;;;;;;29.99;40.04;99094.50;5043480;28;20039;-56
2021/08/07 08:43:38;;;;;;;10.77;6.80;;;;;;;29.81;40.69;99089.50;5030629;28;20037;-58
2021/08/07 08:46:04;;;;;;;10.82;6.57;;;;;;;29.48;40.74;99089.63;5039248;28;20041;-53
2021/08/07 08:48:30;;;;;;;9.60;6.40;;;;;;;29.17;41.15;99092.97;5050261;28;20472;-55
2021/08/07 08:50:56;;;;;;;17.17;6.45;;;;;;;28.82;42.21;99094.38;5038881;28;20048;-54
2021/08/07 08:53:22;;;;;;;10.20;6.88;;;;;;;28.57;42.58;99122.50;5030749;28;20037;-58
2021/08/07 08:55:48;;;;;;;15.93;6.70;;;;;;;28.22;43.21;99121.84;5029855;28;20405;-55
2021/08/07 08:58:16;;;;;;;12.70;6.82;;;;;;;28.00;44.03;99119.94;5030808;28;20397;-56
2021/08/07 09:00:42;;;;;;;15.15;7.90;;;;;;;27.91;44.22;99122.28;5035113;28;20060;-56
2021/08/07 09:03:07;;;;;;;13.45;6.82;;;;;;;28.13;44.47;99113.19;5038782;28;20064;-52
2021/08/07 09:05:33;;;;;;;13.70;6.78;;;;;;;28.86;42.31;99109.28;5030627;28;20029;-56
2021/08/07 09:07:59;;;;;;;15.13;6.90;;;;;;;29.43;41.41;99117.19;5047167;28;20112;-58
2021/08/07 09:10:24;;;;;;;13.30;6.80;;;;;;;29.64;40.58;99110.66;5050810;28;20036;-60
2021/08/07 09:12:55;;;;;;;14.43;7.15;;;;;;;29.96;40.09;99128.16;5049940;28;20025;-57
2021/08/07 09:15:36;;;;;;;13.23;6.90;;;;;;;30.08;39.60;99127.97;5050308;28;20057;-56
2021/08/07 09:18:10;;;;;;;11.15;6.75;;;;;;;29.86;40.22;99128.97;5050388;28;20120;-57
2021/08/07 09:20:37;;;;;;;13.23;6.25;;;;;;;29.46;40.68;99122.16;5050550;28;20523;-58
2021/08/07 09:23:03;;;;;;;12.10;6.20;;;;;;;29.23;40.97;99126.94;5048871;28;20029;-57
2021/08/07 09:25:46;;;;;;;12.60;6.30;;;;;;;29.26;41.33;99142.09;5049989;28;20045;-54
2021/08/07 09:28:12;;;;;;;11.15;6.68;;;;;;;29.04;41.27;99149.38;5041044;28;20448;-58
2021/08/07 09:30:40;;;;;;;9.45;5.38;;;;;;;29.05;41.29;99156.56;5050125;28;20054;-54
2021/08/07 09:33:07;;;;;;;7.13;5.35;;;;;;;29.06;41.63;99166.50;5050194;28;20029;-54
2021/08/07 09:35:38;;;;;;;8.30;6.13;;;;;;;29.30;41.54;99174.38;5044985;28;20037;-56
2021/08/07 09:38:07;;;;;;;9.48;5.80;;;;;;;29.40;40.50;99164.53;5049858;28;20395;-56
2021/08/07 09:40:51;;;;;;;11.43;6.20;;;;;;;29.93;40.34;99178.38;5037374;28;20090;-57
2021/08/07 09:43:20;;;;;;;10.38;6.30;;;;;;;29.82;40.17;99176.69;5041385;28;20057;-57
2021/08/07 09:46:05;;;;;;;8.05;6.03;;;;;;;29.92;40.28;99185.84;5036379;28;20044;-53
2021/08/07 09:48:35;;;;;;;7.63;6.30;;;;;;;29.92;39.74;99180.34;5030803;28;20034;-56
2021/08/07 09:51:26;;;;;;;12.13;6.32;;;;;;;30.27;39.68;99168.91;5038200;28;20045;-53
2021/08/07 09:54:08;;;;;;;14.85;6.38;;;;;;;30.62;38.94;99181.16;5049659;28;20032;-58
2021/08/07 09:56:57;;;;;;;13.40;6.65;;;;;;;30.68;38.55;99173.72;5049926;28;20037;-56
2021/08/07 09:59:28;;;;;;;16.15;6.88;;;;;;;30.30;39.10;99162.81;5049760;28;20040;-58
2021/08/07 10:01:55;;;;;;;9.80;6.72;;;;;;;30.04;39.02;99157.22;5049557;28;20029;-57
2021/08/07 10:04:22;;;;;;;10.63;6.60;;;;;;;29.53;40.25;99160.50;5032829;28;20032;-61
2021/08/07 10:06:49;;;;;;;8.98;6.53;;;;;;;29.36;40.64;99145.75;5042708;28;20033;-55
2021/08/07 10:09:30;;;;;;;9.90;6.90;;;;;;;29.44;40.92;99160.19;5047459;28;20031;-58
2021/08/07 10:12:04;;;;;;;10.68;6.22;;;;;;;29.21;41.21;99164.97;5036354;28;20026;-57
2021/08/07 10:14:29;;;;;;;9.63;6.75;;;;;;;29.21;41.00;99157.50;5041244;28;20025;-56
2021/08/07 10:16:56;;;;;;;10.68;6.72;;;;;;;29.49;40.66;99155.53;5049187;28;20037;-54
2021/08/07 10:19:22;;;;;;;13.13;6.30;;;;;;;29.88;39.92;99150.78;5029791;28;20036;-54
2021/08/07 10:21:49;;;;;;;10.82;6.95;;;;;;;30.20;39.57;99153.44;5030430;28;20033;-55
2021/08/07 10:24:16;;;;;;;10.40;6.57;;;;;;;30.56;39.21;99173.94;5030478;28;20057;-55
2021/08/07 10:26:45;;;;;;;12.65;7.32;;;;;;;30.78;39.18;99174.56;5033839;28;20065;-54
2021/08/07 10:29:12;;;;;;;13.65;6.95;;;;;;;30.55;39.02;99177.81;5033622;28;20044;-56
2021/08/07 10:31:38;;;;;;;10.73;6.97;;;;;;;30.40;39.83;99184.13;5033789;28;20022;-55
2021/08/07 10:34:05;;;;;;;12.23;7.18;;;;;;;30.20;39.96;99178.28;5050496;28;20083;-53
2021/08/07 10:36:33;;;;;;;13.90;5.88;;;;;;;30.20;40.10;99196.75;5053126;28;20032;-51
2021/08/07 10:39:02;;;;;;;14.60;6.50;;;;;;;30.19;40.42;99186.81;5053118;28;20070;-55
2021/08/07 10:41:29;;;;;;;13.95;5.97;;;;;;;30.39;40.26;99186.06;5052310;28;20075;-55
2021/08/07 10:43:56;;;;;;;9.32;6.60;;;;;;;30.58;39.51;99191.06;5049812;28;20031;-53
2021/08/07 10:46:22;;;;;;;13.38;6.30;;;;;;;30.70;39.05;99183.41;5043579;28;20071;-58
2021/08/07 10:48:50;;;;;;;10.75;6.88;;;;;;;30.83;38.74;99189.50;5049797;28;20026;-58
2021/08/07 10:51:19;;;;;;;11.32;6.55;;;;;;;30.84;39.07;99171.81;5044980;28;20024;-67
2021/08/07 10:53:46;;;;;;;13.73;6.53;;;;;;;30.63;39.13;99177.31;5046976;28;20059;-57
2021/08/07 10:56:31;;;;;;;13.63;6.50;;;;;;;30.84;38.63;99167.13;5043826;28;20037;-59
2021/08/07 10:58:58;;;;;;;9.30;6.03;;;;;;;30.66;38.91;99174.00;5033243;28;20108;-60
2021/08/07 11:01:26;;;;;;;9.48;5.90;;;;;;;30.59;39.14;99154.06;5049196;28;20040;-57
2021/08/07 11:04:01;;;;;;;11.20;6.07;;;;;;;30.75;39.03;99164.06;5052906;28;20028;-57
2021/08/07 11:06:38;;;;;;;7.40;6.55;;;;;;;30.69;39.25;99161.56;5053089;28;20475;-54
2021/08/07 11:09:40;;;;;;;12.20;6.18;;;;;;;30.39;40.06;99165.91;5052751;28;20083;-57
2021/08/07 11:12:06;;;;;;;12.75;6.10;;;;;;;29.73;40.32;99176.34;5050168;28;20029;-54
2021/08/07 11:14:34;;;;;;;11.68;6.45;;;;;;;29.44;41.43;99207.06;5036124;28;20057;-53
2021/08/07 11:17:03;;;;;;;12.50;6.75;;;;;;;29.13;41.96;99206.78;5032702;28;20064;-55
2021/08/07 11:19:43;;;;;;;9.82;6.18;;;;;;;29.04;42.26;99199.00;5032919;28;20048;-53